createdAt,value
2023-04-11T00:02:17.964Z,2.28
2023-04-11T00:04:45.552Z,2.90
2023-04-11T00:09:46.109Z,2.30
2023-04-11T00:12:13.272Z,3.45
2023-04-11T00:14:52.069Z,3.78
2023-04-11T00:17:19.320Z,2.85
2023-04-11T00:19:53.067Z,2.33
2023-04-11T00:22:20.338Z,2.22
2023-04-11T00:25:00.061Z,3.38
2023-04-11T00:27:27.348Z,3.10
2023-04-11T00:29:56.996Z,2.72
2023-04-11T00:32:30.971Z,3.50
2023-04-11T00:34:58.251Z,3.55
2023-04-11T00:37:42.998Z,3.05
2023-04-11T00:40:12.188Z,2.38
2023-04-11T00:42:39.772Z,2.33
2023-04-11T00:47:53.956Z,3.55
2023-04-11T00:50:29.161Z,3.60
2023-04-11T00:52:57.201Z,3.60
2023-04-11T00:55:24.584Z,3.08
2023-04-11T00:58:01.959Z,3.58
2023-04-11T01:00:29.153Z,2.80
2023-04-11T01:03:03.234Z,3.15
2023-04-11T01:05:32.376Z,3.05
2023-04-11T01:07:59.911Z,3.17
2023-04-11T01:13:03.380Z,3.03
2023-04-11T01:15:30.937Z,2.85
2023-04-11T01:20:38.733Z,2.25
2023-04-11T01:23:06.901Z,2.67
2023-04-11T01:25:42.999Z,2.13
2023-04-11T01:28:16.983Z,2.92
2023-04-11T01:30:51.113Z,2.92
2023-04-11T01:33:18.355Z,2.67
2023-04-11T01:35:45.576Z,2.42
2023-04-11T01:38:18.997Z,3.33
2023-04-11T01:40:46.548Z,3.33
2023-04-11T01:45:47.269Z,2.55
2023-04-11T01:48:16.097Z,2.67
2023-04-11T01:50:50.057Z,2.58
2023-04-11T01:53:17.474Z,2.55
2023-04-11T01:55:44.575Z,2.25
2023-04-11T01:58:18.006Z,2.97
2023-04-11T02:00:45.324Z,2.53
2023-04-11T02:03:19.150Z,3.70
2023-04-11T02:05:46.520Z,4.10
2023-04-11T02:08:13.616Z,2.75
2023-04-11T02:10:47.013Z,3.90
2023-04-11T02:13:14.282Z,2.63
2023-04-11T02:15:48.104Z,3.78
2023-04-11T02:18:15.693Z,4.00
2023-04-11T02:23:16.093Z,3.20
2023-04-11T02:25:50.007Z,2.60
2023-04-11T02:28:24.207Z,3.83
2023-04-11T02:30:51.440Z,3.55
2023-04-11T02:33:19.480Z,3.33
2023-04-11T02:35:54.086Z,3.70
2023-04-11T02:38:21.438Z,3.80
2023-04-11T02:40:54.987Z,3.58
2023-04-11T02:43:22.073Z,2.92
2023-04-11T02:46:02.309Z,4.88
2023-04-11T02:48:36.887Z,3.20
2023-04-11T02:51:11.200Z,3.47
2023-04-11T02:53:38.351Z,3.80
2023-04-11T02:56:06.753Z,4.35
2023-04-11T02:58:41.120Z,3.03
2023-04-11T03:01:11.201Z,4.57
2023-04-11T03:03:49.076Z,4.15
2023-04-11T03:06:16.442Z,4.57
2023-04-11T03:08:43.523Z,3.20
2023-04-11T03:11:17.089Z,4.68
2023-04-11T03:13:44.538Z,3.85
2023-04-11T03:16:20.173Z,4.38
2023-04-11T03:18:47.456Z,4.75
2023-04-11T03:21:14.740Z,4.22
2023-04-11T03:23:48.154Z,4.47
2023-04-11T03:26:35.909Z,4.70
2023-04-11T03:29:10.030Z,5.22
2023-04-11T03:31:37.217Z,5.05
2023-04-11T03:34:04.319Z,4.60
2023-04-11T03:36:39.107Z,4.80
2023-04-11T03:39:06.448Z,3.72
2023-04-11T03:41:39.963Z,4.53
2023-04-11T03:44:07.392Z,4.55
2023-04-11T03:46:34.738Z,3.03
2023-04-11T03:49:09.021Z,3.92
2023-04-11T03:51:36.234Z,5.00
2023-04-11T03:54:10.190Z,4.35
2023-04-11T03:56:37.347Z,4.13
2023-04-11T03:59:04.464Z,6.30
2023-04-11T04:01:38.164Z,4.30
2023-04-11T04:04:06.559Z,4.95
2023-04-11T04:06:41.127Z,4.35
2023-04-11T04:09:08.295Z,3.97
2023-04-11T04:11:35.392Z,5.18
2023-04-11T04:14:09.091Z,3.38
2023-04-11T04:16:36.323Z,5.20
2023-04-11T04:19:10.157Z,5.18
2023-04-11T04:21:38.051Z,4.88
2023-04-11T04:24:05.506Z,4.18
2023-04-11T04:26:39.038Z,4.43
2023-04-11T04:29:06.555Z,4.40
2023-04-11T04:34:10.741Z,4.15
2023-04-11T04:36:54.028Z,4.88
2023-04-11T04:39:21.324Z,6.15
2023-04-11T04:41:49.053Z,4.68
2023-04-11T04:44:23.011Z,5.68
2023-04-11T04:46:53.670Z,4.72
2023-04-11T04:49:28.106Z,5.57
2023-04-11T04:51:55.485Z,5.85
2023-04-11T04:54:23.769Z,4.97
2023-04-11T04:56:57.038Z,5.15
2023-04-11T04:59:24.211Z,5.75
2023-04-11T05:01:58.175Z,5.43
2023-04-11T05:04:25.875Z,5.47
2023-04-11T05:09:27.225Z,5.32
2023-04-11T05:11:54.383Z,5.55
2023-04-11T05:14:21.467Z,5.30
2023-04-11T05:16:55.056Z,4.38
2023-04-11T05:19:22.249Z,5.63
2023-04-11T05:21:56.290Z,6.00
2023-04-11T05:24:23.458Z,4.22
2023-04-11T05:27:04.223Z,5.85
2023-04-11T05:29:31.353Z,5.43
2023-04-11T05:31:58.502Z,5.95
2023-04-11T05:34:32.022Z,5.80
2023-04-11T05:36:59.386Z,4.55
2023-04-11T05:39:33.246Z,5.90
2023-04-11T05:42:01.601Z,5.78
2023-04-11T05:44:28.676Z,6.05
2023-04-11T05:47:03.061Z,4.95
2023-04-11T05:49:30.214Z,5.07
2023-04-11T05:52:03.968Z,5.20
2023-04-11T05:54:41.064Z,6.38
2023-04-11T05:57:08.281Z,6.35
2023-04-11T05:59:36.145Z,5.70
2023-04-11T06:02:10.163Z,6.03
2023-04-11T06:04:37.535Z,7.25
2023-04-11T06:07:12.074Z,6.10
2023-04-11T06:09:42.068Z,6.68
2023-04-11T06:12:09.400Z,6.50
2023-04-11T06:14:43.107Z,5.20
2023-04-11T06:17:10.325Z,7.57
2023-04-11T06:19:44.008Z,7.15
2023-04-11T06:22:11.265Z,6.93
2023-04-11T06:24:39.171Z,6.82
2023-04-11T06:27:13.067Z,6.68
2023-04-11T06:29:40.903Z,6.90
2023-04-11T06:32:15.067Z,7.03
2023-04-11T06:34:42.455Z,6.65
2023-04-11T06:37:09.714Z,6.70
2023-04-11T06:39:44.074Z,6.15
2023-04-11T06:42:11.232Z,6.95
2023-04-11T06:44:38.369Z,7.18
2023-04-11T06:47:12.242Z,6.63
2023-04-11T06:49:39.477Z,5.70
2023-04-11T06:52:06.981Z,6.53
2023-04-11T06:54:41.092Z,8.20
2023-04-11T06:57:10.129Z,7.55
2023-04-11T06:59:44.105Z,7.35
2023-04-11T07:02:11.509Z,7.93
2023-04-11T07:04:38.758Z,7.85
2023-04-11T07:07:13.094Z,8.65
2023-04-11T07:09:40.484Z,7.60
2023-04-11T07:12:14.016Z,8.40
2023-04-11T07:14:41.237Z,7.40
2023-04-11T07:17:08.501Z,7.07
2023-04-11T07:19:41.976Z,7.97
2023-04-11T07:22:09.238Z,6.53
2023-04-11T07:24:43.127Z,8.13
2023-04-11T07:27:17.224Z,7.75
2023-04-11T07:29:51.040Z,7.88
2023-04-11T07:32:18.381Z,8.10
2023-04-11T07:34:45.534Z,8.77
2023-04-11T07:37:20.091Z,8.65
2023-04-11T07:39:47.265Z,8.73
2023-04-11T07:42:21.217Z,9.40
2023-04-11T07:44:48.540Z,9.15
2023-04-11T07:47:15.869Z,8.15
2023-04-11T07:49:50.153Z,8.40
2023-04-11T07:52:17.305Z,9.40
2023-04-11T07:54:51.022Z,8.85
2023-04-11T07:57:18.426Z,9.23
2023-04-11T07:59:46.326Z,8.88
2023-04-11T08:02:20.477Z,9.30
2023-04-11T08:04:47.863Z,10.27
2023-04-11T08:07:15.267Z,10.95
2023-04-11T08:09:49.144Z,10.88
2023-04-11T08:12:16.722Z,9.70
2023-04-11T08:17:27.150Z,10.30
2023-04-11T08:20:04.114Z,11.07
2023-04-11T08:22:33.195Z,10.77
2023-04-11T08:25:00.374Z,10.90
2023-04-11T08:27:34.003Z,10.38
2023-04-11T08:30:01.849Z,11.73
2023-04-11T08:32:35.075Z,11.40
2023-04-11T08:35:02.562Z,11.75
2023-04-11T08:37:30.341Z,11.38
2023-04-11T08:40:04.242Z,11.25
2023-04-11T08:42:31.934Z,11.93
2023-04-11T08:45:00.246Z,11.57
2023-04-11T08:47:34.112Z,12.50
2023-04-11T08:50:01.532Z,11.98
2023-04-11T08:52:36.092Z,11.45
2023-04-11T08:55:04.404Z,12.10
2023-04-11T08:57:31.960Z,11.98
2023-04-11T09:00:07.188Z,11.23
2023-04-11T09:02:34.431Z,12.18
2023-04-11T09:05:08.182Z,12.38
2023-04-11T09:07:50.086Z,12.10
2023-04-11T09:10:27.139Z,12.80
2023-04-11T09:12:57.669Z,13.38
2023-04-11T09:15:26.343Z,13.10
2023-04-11T09:18:01.080Z,13.43
2023-04-11T09:20:31.823Z,13.05
2023-04-11T09:23:06.301Z,13.18
2023-04-11T09:25:59.028Z,12.73
2023-04-11T09:28:33.119Z,14.23
2023-04-11T09:31:00.821Z,14.15
2023-04-11T09:33:31.657Z,13.65
2023-04-11T09:36:05.370Z,13.88
2023-04-11T09:38:33.774Z,15.02
2023-04-11T09:41:02.268Z,13.48
2023-04-11T09:43:56.382Z,13.70
2023-04-11T09:46:31.117Z,13.60
2023-04-11T09:48:58.386Z,13.10
2023-04-11T09:51:39.028Z,15.63
2023-04-11T09:54:06.602Z,13.25
2023-04-11T09:59:11.271Z,13.90
2023-04-11T10:01:45.130Z,15.20
2023-04-11T10:04:13.804Z,14.32
2023-04-11T10:07:08.037Z,15.27
2023-04-11T10:09:38.843Z,14.88
2023-04-11T10:12:13.183Z,14.77
2023-04-11T10:14:41.794Z,14.93
2023-04-11T10:17:25.180Z,15.88
2023-04-11T10:19:58.924Z,15.20
2023-04-11T10:22:48.084Z,15.45
2023-04-11T10:25:21.910Z,15.07
2023-04-11T10:28:10.038Z,14.57
2023-04-11T10:30:40.227Z,14.05
2023-04-11T10:33:19.528Z,16.08
2023-04-11T10:36:10.564Z,14.55
2023-04-11T10:38:45.220Z,15.30
2023-04-11T10:41:33.512Z,14.98
2023-04-11T10:44:25.121Z,15.85
2023-04-11T10:46:54.232Z,16.13
2023-04-11T10:49:45.481Z,16.52
2023-04-11T10:52:17.281Z,15.90
2023-04-11T10:54:53.328Z,17.27
2023-04-11T10:57:21.662Z,16.45
2023-04-11T10:59:51.888Z,17.58
2023-04-11T11:02:28.383Z,16.90
2023-04-11T11:05:03.255Z,17.23
2023-04-11T11:07:37.136Z,16.85
2023-04-11T11:10:04.374Z,16.55
2023-04-11T11:12:38.334Z,17.45
2023-04-11T11:15:15.090Z,14.57
2023-04-11T11:17:55.274Z,15.73
2023-04-11T11:20:25.392Z,16.10
2023-04-11T11:26:05.305Z,16.90
2023-04-11T11:31:19.136Z,16.88
2023-04-11T11:33:46.267Z,16.55
2023-04-11T11:36:22.248Z,16.90
2023-04-11T11:38:49.553Z,16.95
2023-04-11T11:41:23.372Z,15.35
2023-04-11T11:43:50.765Z,17.70
2023-04-11T11:46:17.986Z,17.48
2023-04-11T11:49:05.459Z,15.30
2023-04-11T11:51:42.493Z,15.85
2023-04-11T11:54:17.137Z,13.75
2023-04-11T11:56:56.075Z,13.57
2023-04-11T11:59:29.378Z,14.63
2023-04-11T12:02:03.179Z,12.48
2023-04-11T12:04:32.172Z,12.32
2023-04-11T12:07:15.086Z,12.32
2023-04-11T12:09:42.643Z,12.00
2023-04-11T12:14:44.188Z,11.73
2023-04-11T12:17:11.357Z,14.23
2023-04-11T12:19:49.130Z,14.15
2023-04-11T12:22:16.214Z,12.98
2023-04-11T12:24:50.068Z,12.30
2023-04-11T12:27:24.270Z,12.50
2023-04-11T12:30:04.115Z,13.48
2023-04-11T12:32:33.887Z,13.10
2023-04-11T12:35:01.531Z,11.63
2023-04-11T12:40:06.784Z,10.15
2023-04-11T12:42:39.025Z,10.32
2023-04-11T12:45:16.173Z,10.48
2023-04-11T12:47:43.716Z,10.65
2023-04-11T12:52:45.210Z,9.70
2023-04-11T13:00:57.262Z,9.07
2023-04-11T13:03:33.738Z,10.80
2023-04-11T13:06:01.180Z,10.50
2023-04-11T13:08:28.439Z,10.38
2023-04-11T13:11:02.340Z,10.15
2023-04-11T13:13:29.625Z,10.27
2023-04-11T13:15:56.758Z,10.60
2023-04-11T13:18:30.095Z,11.23
2023-04-11T13:21:04.295Z,10.65
2023-04-11T13:23:31.403Z,11.98
2023-04-11T13:26:26.081Z,13.15
2023-04-11T13:29:00.353Z,11.82
2023-04-11T13:31:27.755Z,11.15
2023-04-11T13:33:56.723Z,10.82
2023-04-11T13:36:30.115Z,10.18
2023-04-11T13:38:58.301Z,10.43
2023-04-11T13:41:32.232Z,10.00
2023-04-11T13:43:59.384Z,11.82
2023-04-11T13:46:27.349Z,9.80
2023-04-11T13:49:01.553Z,10.63
2023-04-11T13:51:28.792Z,10.85
2023-04-11T13:53:56.056Z,10.85
2023-04-11T13:56:30.279Z,11.13
2023-04-11T13:58:57.700Z,10.63
2023-04-11T14:03:58.859Z,10.00
2023-04-11T14:06:26.314Z,9.68
2023-04-11T14:09:00.393Z,9.82
2023-04-11T14:11:27.595Z,10.40
2023-04-11T14:13:55.049Z,10.27
2023-04-11T14:18:56.404Z,8.23
2023-04-11T14:21:30.175Z,8.10
2023-04-11T14:23:57.615Z,8.77
2023-04-11T14:29:05.166Z,8.48
2023-04-11T14:31:32.474Z,7.03
2023-04-11T14:34:06.152Z,8.60
2023-04-11T14:36:33.617Z,7.40
2023-04-11T14:39:00.740Z,7.88
2023-04-11T14:41:34.116Z,8.30
2023-04-11T14:44:01.736Z,5.28
2023-04-11T14:49:02.444Z,6.15
2023-04-11T14:51:29.808Z,5.40
2023-04-11T14:54:03.149Z,5.78
2023-04-11T14:56:30.638Z,5.72
2023-04-11T14:59:04.175Z,6.30
2023-04-11T15:01:31.775Z,7.05
2023-04-11T15:03:59.169Z,7.43
2023-04-11T15:06:33.275Z,7.32
2023-04-11T15:09:00.453Z,7.25
2023-04-11T15:11:34.341Z,6.72
2023-04-11T15:14:01.694Z,7.05
2023-04-11T15:16:28.960Z,6.43
2023-04-11T15:19:03.335Z,7.10
2023-04-11T15:21:30.689Z,6.63
2023-04-11T15:24:04.252Z,7.80
2023-04-11T15:26:38.189Z,7.55
2023-04-11T15:29:25.355Z,7.18
2023-04-11T15:31:52.754Z,5.88
2023-04-11T15:34:22.002Z,5.78
2023-04-11T15:36:56.231Z,5.25
2023-04-11T15:39:23.830Z,5.25
2023-04-11T15:44:25.422Z,5.07
2023-04-11T15:46:52.544Z,5.28
2023-04-11T15:49:26.280Z,4.80
2023-04-11T15:51:53.465Z,5.60
2023-04-11T15:54:28.352Z,5.57
2023-04-11T15:56:57.313Z,5.10
2023-04-11T15:59:25.126Z,4.82
2023-04-11T16:01:59.346Z,4.97
2023-04-11T16:04:27.204Z,5.10
2023-04-11T16:07:01.493Z,5.07
2023-04-11T16:09:28.741Z,4.80
2023-04-11T16:11:56.885Z,4.65
2023-04-11T16:14:31.298Z,5.10
2023-04-11T16:16:58.503Z,4.80
2023-04-11T16:19:32.376Z,4.78
2023-04-11T16:21:59.603Z,4.80
2023-04-11T16:24:28.784Z,5.22
2023-04-11T16:27:04.361Z,5.00
2023-04-11T16:29:31.895Z,5.38
2023-04-11T16:34:33.237Z,4.72
2023-04-11T16:37:01.312Z,4.57
2023-04-11T16:39:28.510Z,4.80
2023-04-11T16:42:02.547Z,5.35
2023-04-11T16:44:29.754Z,5.25
2023-04-11T16:47:03.206Z,4.88
2023-04-11T16:49:30.454Z,5.00
2023-04-11T16:51:57.528Z,5.10
2023-04-11T16:54:31.288Z,5.13
2023-04-11T16:56:58.500Z,5.22
2023-04-11T16:59:25.605Z,4.95
2023-04-11T17:01:59.391Z,5.32
2023-04-11T17:04:27.148Z,5.45
2023-04-11T17:07:02.314Z,5.70
2023-04-11T17:09:29.984Z,4.82
2023-04-11T17:11:57.746Z,5.50
2023-04-11T17:14:31.264Z,5.32
2023-04-11T17:16:58.546Z,3.97
2023-04-11T17:19:32.309Z,3.80
2023-04-11T17:21:59.617Z,3.45
2023-04-11T17:24:26.995Z,3.60
2023-04-11T17:29:35.242Z,2.95
2023-04-11T17:32:09.293Z,2.92
2023-04-11T17:34:36.789Z,2.88
2023-04-11T17:37:03.920Z,2.70
2023-04-11T17:39:37.267Z,2.83
2023-04-11T17:42:04.580Z,2.80
2023-04-11T17:44:31.667Z,3.35
2023-04-11T17:47:05.353Z,3.17
2023-04-11T17:49:32.646Z,2.95
2023-04-11T17:52:00.019Z,3.10
2023-04-11T17:57:01.536Z,2.88
2023-04-11T17:59:35.272Z,3.30
2023-04-11T18:02:02.743Z,2.83
2023-04-11T18:07:04.422Z,3.10
2023-04-11T18:09:31.931Z,3.10
2023-04-11T18:14:34.088Z,2.92
2023-04-11T18:17:08.617Z,2.85
2023-04-11T18:19:36.144Z,2.78
2023-04-11T18:24:37.288Z,2.42
2023-04-11T18:27:24.210Z,2.93
2023-04-11T18:29:58.324Z,3.25
2023-04-11T18:32:27.992Z,3.47
2023-04-11T18:34:56.926Z,3.50
2023-04-11T18:37:31.731Z,3.53
2023-04-11T18:39:58.992Z,3.17
2023-04-11T18:42:32.343Z,3.00
2023-04-11T18:45:00.204Z,2.85
2023-04-11T18:47:27.619Z,2.90
2023-04-11T18:50:01.460Z,3.05
2023-04-11T18:52:29.202Z,2.85
2023-04-11T18:55:03.397Z,2.75
2023-04-11T18:57:33.882Z,2.40
2023-04-11T19:00:19.080Z,2.30
2023-04-11T19:02:47.603Z,2.92
2023-04-11T19:05:23.918Z,3.10
2023-04-11T19:07:51.584Z,2.88
2023-04-11T19:12:52.333Z,3.30
2023-04-11T19:15:19.844Z,2.90
2023-04-11T19:17:47.019Z,5.70
2023-04-11T19:20:22.231Z,4.13
2023-04-11T19:22:49.380Z,5.07
2023-04-11T19:25:23.411Z,3.90
2023-04-11T19:27:57.551Z,3.85
2023-04-11T19:30:31.360Z,2.72
2023-04-11T19:33:05.286Z,3.47
2023-04-11T19:35:32.576Z,3.05
2023-04-11T19:38:08.373Z,2.67
2023-04-11T19:40:36.038Z,2.75
2023-04-11T19:43:03.515Z,2.58
2023-04-11T19:48:04.660Z,3.47
2023-04-11T19:50:32.049Z,2.50
2023-04-11T19:53:08.270Z,2.88
2023-04-11T19:55:35.667Z,2.33
2023-04-11T19:58:02.890Z,3.55
2023-04-11T20:00:41.281Z,2.80
2023-04-11T20:03:14.293Z,3.05
2023-04-11T20:05:49.428Z,3.10
2023-04-11T20:08:17.778Z,3.10
2023-04-11T20:10:45.040Z,3.38
2023-04-11T20:13:18.528Z,2.92
2023-04-11T20:15:45.922Z,2.85
2023-04-11T20:18:19.370Z,3.00
2023-04-11T20:20:47.076Z,2.70
2023-04-11T20:23:16.234Z,3.38
2023-04-11T20:25:50.413Z,3.20
2023-04-11T20:28:25.274Z,2.80
2023-04-11T20:31:05.538Z,2.92
2023-04-11T20:33:32.873Z,2.50
2023-04-11T20:36:00.209Z,3.10
2023-04-11T20:38:34.298Z,4.25
2023-04-11T20:41:03.773Z,3.15
2023-04-11T20:43:37.463Z,3.00
2023-04-11T20:46:08.300Z,3.50
2023-04-11T20:48:35.906Z,3.55
2023-04-11T20:53:36.711Z,2.65
2023-04-11T20:56:11.584Z,2.92
2023-04-11T20:58:39.280Z,2.88
2023-04-11T21:01:06.547Z,3.30
2023-04-11T21:03:43.632Z,3.75
2023-04-11T21:06:10.984Z,3.22
2023-04-11T21:08:44.355Z,3.55
2023-04-11T21:11:11.519Z,3.85
2023-04-11T21:13:38.644Z,3.72
2023-04-11T21:16:12.458Z,3.90
2023-04-11T21:18:39.693Z,4.43
2023-04-11T21:21:14.364Z,4.13
2023-04-11T21:23:42.477Z,3.25
2023-04-11T21:26:09.579Z,3.88
2023-04-11T21:28:43.429Z,3.83
2023-04-11T21:31:10.750Z,4.22
2023-04-11T21:33:44.479Z,3.63
2023-04-11T21:36:11.822Z,3.67
2023-04-11T21:38:38.941Z,4.28
2023-04-11T21:41:13.378Z,3.58
2023-04-11T21:43:41.004Z,3.85
2023-04-11T21:48:43.085Z,4.50
2023-04-11T21:51:10.984Z,5.05
2023-04-11T21:53:44.351Z,4.07
2023-04-11T21:56:11.645Z,4.32
2023-04-11T21:58:38.823Z,5.15
2023-04-11T22:01:19.391Z,4.40
2023-04-11T22:03:50.269Z,4.47
2023-04-11T22:06:25.452Z,5.05
2023-04-11T22:09:01.439Z,5.65
2023-04-11T22:11:36.409Z,4.28
2023-04-11T22:14:10.395Z,5.60
2023-04-11T22:16:37.665Z,4.45
2023-04-11T22:19:04.773Z,4.07
2023-04-11T22:21:39.398Z,4.50
2023-04-11T22:24:09.394Z,4.50
2023-04-11T22:26:43.438Z,4.28
2023-04-11T22:29:32.272Z,3.30
2023-04-11T22:34:34.570Z,3.30
2023-04-11T22:37:01.704Z,3.15
2023-04-11T22:39:36.314Z,4.15
2023-04-11T22:42:03.904Z,4.63
2023-04-11T22:47:06.758Z,3.10
2023-04-11T22:49:47.326Z,3.60
2023-04-11T22:52:15.161Z,4.15
2023-04-11T22:54:49.347Z,4.10
2023-04-11T22:57:16.634Z,4.05
2023-04-11T22:59:50.443Z,4.70
2023-04-11T23:02:17.733Z,4.40
2023-04-11T23:04:45.136Z,3.88
2023-04-11T23:07:19.355Z,3.60
2023-04-11T23:09:47.221Z,3.38
2023-04-11T23:12:21.465Z,5.00
2023-04-11T23:14:50.378Z,4.57
2023-04-11T23:17:17.534Z,4.70
2023-04-11T23:19:51.343Z,4.00
2023-04-11T23:22:18.536Z,4.20
2023-04-11T23:24:52.362Z,4.18
2023-04-11T23:27:39.292Z,4.20
2023-04-11T23:30:14.460Z,4.22
2023-04-11T23:32:42.818Z,4.57
2023-04-11T23:35:10.734Z,3.80
2023-04-11T23:37:44.366Z,3.33
2023-04-11T23:40:20.383Z,3.83
2023-04-11T23:42:54.391Z,4.68
2023-04-11T23:45:22.696Z,5.00
2023-04-11T23:47:53.185Z,5.10
2023-04-11T23:50:27.412Z,4.80
2023-04-11T23:52:54.847Z,3.72
2023-04-11T23:55:28.519Z,4.32
2023-04-11T23:57:55.791Z,5.10
